Time;durP1;ratioP1;P1;durP2;ratioP2;P2;SDS_P1;SDS_P2;PMS_P1;PMS_P2;Temp;Humidity;BMP_temperature;BMP_pressure;BME280_temperature;BME280_humidity;BME280_pressure;Samples;Min_cycle;Max_cycle;Signal;HPM_P1;HPM_P2
2023/07/08 00:01:27;;;;;;;7.50;3.90;;;;;;;;;;5092572;28;20040;-75
2023/07/08 00:03:54;;;;;;;6.28;3.80;;;;;;;;;;5093071;28;20052;-76
2023/07/08 00:06:21;;;;;;;9.73;3.67;;;;;;;;;;5091962;28;20059;-77
2023/07/08 00:08:48;;;;;;;7.65;4.10;;;;;;;;;;5075819;28;20393;-76
2023/07/08 00:11:14;;;;;;;6.95;3.60;;;;;;;;;;5075650;28;20126;-78
2023/07/08 00:13:41;;;;;;;7.60;4.10;;;;;;;;;;5090717;28;20119;-78
2023/07/08 00:16:14;;;;;;;10.82;4.00;;;;;;;;;;5092451;28;20488;-78
2023/07/08 00:18:40;;;;;;;5.72;3.70;;;;;;;;;;5092232;28;20039;-76
2023/07/08 00:21:15;;;;;;;8.43;3.90;;;;;;;;;;5092095;28;20048;-78
2023/07/08 00:23:59;;;;;;;7.20;3.83;;;;;;;;;;5091525;28;20087;-78
2023/07/08 00:26:27;;;;;;;6.22;3.90;;;;;;;;;;5092455;28;20044;-76
2023/07/08 00:28:53;;;;;;;7.38;4.03;;;;;;;;;;5093028;28;20044;-79
2023/07/08 00:31:23;;;;;;;8.25;4.28;;;;;;;;;;5092354;28;20408;-79
2023/07/08 00:33:50;;;;;;;8.35;4.20;;;;;;;;;;5092351;28;20052;-78
2023/07/08 00:36:17;;;;;;;8.65;4.03;;;;;;;;;;5091013;28;20089;-77
2023/07/08 00:38:44;;;;;;;8.82;4.30;;;;;;;;;;5092100;28;20038;-76
2023/07/08 00:41:10;;;;;;;6.60;3.72;;;;;;;;;;5091835;28;20084;-77
2023/07/08 00:43:38;;;;;;;6.13;3.90;;;;;;;;;;5075139;28;20036;-76
2023/07/08 00:46:24;;;;;;;8.85;3.88;;;;;;;;;;5089651;28;20048;-77
2023/07/08 00:48:52;;;;;;;6.57;3.97;;;;;;;;;;5060724;28;20048;-77
2023/07/08 00:51:20;;;;;;;8.13;4.25;;;;;;;;;;5077097;28;20171;-76
2023/07/08 00:53:46;;;;;;;8.57;3.85;;;;;;;;;;5092129;28;20445;-76
2023/07/08 00:56:18;;;;;;;7.93;4.40;;;;;;;;;;5092580;28;20044;-76
2023/07/08 00:58:46;;;;;;;10.63;4.10;;;;;;;;;;5082839;28;20040;-76
2023/07/08 01:01:12;;;;;;;7.57;3.80;;;;;;;;;;5091473;28;20051;-76
2023/07/08 01:03:52;;;;;;;7.55;4.07;;;;;;;;;;5089413;28;20043;-78
2023/07/08 01:06:20;;;;;;;6.45;4.28;;;;;;;;;;5091223;28;20075;-76
2023/07/08 01:08:46;;;;;;;7.60;4.43;;;;;;;;;;5091543;28;20066;-77
2023/07/08 01:11:13;;;;;;;9.82;4.38;;;;;;;;;;5092286;28;20115;-77
2023/07/08 01:13:42;;;;;;;9.90;4.35;;;;;;;;;;5090408;28;20067;-76
2023/07/08 01:16:08;;;;;;;10.07;4.40;;;;;;;;;;5091139;28;20054;-78
2023/07/08 01:18:35;;;;;;;9.38;4.57;;;;;;;;;;5091346;28;20097;-77
2023/07/08 01:21:06;;;;;;;10.40;4.40;;;;;;;;;;5074135;28;20102;-76
2023/07/08 01:23:33;;;;;;;9.15;5.07;;;;;;;;;;5090683;28;20412;-76
2023/07/08 01:26:00;;;;;;;7.15;4.50;;;;;;;;;;5090997;28;20062;-78
2023/07/08 01:28:27;;;;;;;9.45;4.10;;;;;;;;;;5090820;28;20481;-76
2023/07/08 01:30:54;;;;;;;8.68;4.30;;;;;;;;;;5090928;28;20044;-76
2023/07/08 01:33:22;;;;;;;7.43;4.57;;;;;;;;;;5090906;28;20109;-77
2023/07/08 01:35:51;;;;;;;7.05;4.35;;;;;;;;;;5090300;28;20447;-78
2023/07/08 01:38:19;;;;;;;8.07;4.45;;;;;;;;;;5090816;28;20044;-76
2023/07/08 01:40:49;;;;;;;9.02;4.80;;;;;;;;;;5091283;28;20488;-76
2023/07/08 01:43:15;;;;;;;11.27;4.80;;;;;;;;;;5091237;28;20477;-76
2023/07/08 01:45:42;;;;;;;8.00;4.28;;;;;;;;;;5092116;28;20040;-76
2023/07/08 01:48:09;;;;;;;7.72;4.68;;;;;;;;;;5090473;28;20090;-77
2023/07/08 01:50:37;;;;;;;8.48;4.57;;;;;;;;;;5090955;28;20123;-75
2023/07/08 01:53:07;;;;;;;8.63;5.25;;;;;;;;;;5091068;28;20453;-77
2023/07/08 01:55:33;;;;;;;7.35;4.90;;;;;;;;;;5090245;28;20044;-76
2023/07/08 01:57:59;;;;;;;10.50;4.78;;;;;;;;;;5072965;28;20071;-76
2023/07/08 02:00:25;;;;;;;8.02;4.43;;;;;;;;;;5091493;28;20033;-76
2023/07/08 02:02:52;;;;;;;8.60;4.70;;;;;;;;;;5084903;28;20538;-77
2023/07/08 02:05:18;;;;;;;9.23;5.22;;;;;;;;;;5087817;28;20524;-77
2023/07/08 02:07:44;;;;;;;9.30;4.65;;;;;;;;;;5089951;28;20055;-77
2023/07/08 02:10:10;;;;;;;10.60;4.40;;;;;;;;;;5090381;28;20562;-76
2023/07/08 02:12:36;;;;;;;9.32;4.60;;;;;;;;;;5090949;28;20460;-75
2023/07/08 02:15:03;;;;;;;10.55;4.47;;;;;;;;;;5088947;28;20044;-77
2023/07/08 02:17:29;;;;;;;7.07;4.63;;;;;;;;;;5090730;28;20040;-76
2023/07/08 02:19:56;;;;;;;11.75;5.65;;;;;;;;;;5090418;28;20089;-76
2023/07/08 02:22:22;;;;;;;9.95;4.35;;;;;;;;;;5073159;28;20358;-77
2023/07/08 02:24:48;;;;;;;6.65;4.30;;;;;;;;;;5090390;28;20040;-76
2023/07/08 02:27:15;;;;;;;10.30;4.80;;;;;;;;;;5088628;28;20044;-75
2023/07/08 02:29:41;;;;;;;8.32;4.28;;;;;;;;;;5090380;28;20145;-76
2023/07/08 02:32:09;;;;;;;10.77;4.65;;;;;;;;;;5089984;28;20059;-76
2023/07/08 02:34:35;;;;;;;13.02;4.85;;;;;;;;;;5094135;28;20119;-75
2023/07/08 02:37:01;;;;;;;9.63;4.90;;;;;;;;;;5093221;28;20044;-76
2023/07/08 02:39:27;;;;;;;9.88;5.00;;;;;;;;;;5060804;28;20435;-77
2023/07/08 02:41:53;;;;;;;8.23;4.63;;;;;;;;;;5095621;28;20111;-76
2023/07/08 02:44:19;;;;;;;8.35;4.85;;;;;;;;;;5076574;28;20531;-76
2023/07/08 02:46:45;;;;;;;9.13;4.50;;;;;;;;;;5081352;28;20546;-75
2023/07/08 02:49:11;;;;;;;9.13;5.22;;;;;;;;;;5093837;28;20075;-76
2023/07/08 02:51:37;;;;;;;7.07;4.78;;;;;;;;;;5093790;28;20063;-76
2023/07/08 02:54:03;;;;;;;8.38;5.00;;;;;;;;;;5093818;28;20047;-76
2023/07/08 02:56:29;;;;;;;8.73;4.63;;;;;;;;;;5092814;28;20044;-76
2023/07/08 02:58:56;;;;;;;8.90;5.13;;;;;;;;;;5094381;28;20050;-76
2023/07/08 03:01:23;;;;;;;8.70;4.55;;;;;;;;;;5093295;28;20123;-76
2023/07/08 03:03:49;;;;;;;10.27;5.20;;;;;;;;;;5093911;28;20043;-76
2023/07/08 03:06:16;;;;;;;8.52;5.20;;;;;;;;;;5094755;28;20053;-75
2023/07/08 03:08:42;;;;;;;7.07;4.72;;;;;;;;;;5076121;28;20397;-75
2023/07/08 03:11:08;;;;;;;9.48;5.45;;;;;;;;;;5093551;28;20043;-75
2023/07/08 03:13:35;;;;;;;9.23;5.60;;;;;;;;;;5093719;28;20046;-75
2023/07/08 03:16:01;;;;;;;12.13;5.90;;;;;;;;;;5077172;28;20485;-75
2023/07/08 03:18:28;;;;;;;9.60;5.18;;;;;;;;;;5086409;28;20602;-75
2023/07/08 03:20:55;;;;;;;8.90;4.95;;;;;;;;;;5093486;28;20044;-75
2023/07/08 03:23:22;;;;;;;9.88;5.10;;;;;;;;;;5092871;28;20032;-76
2023/07/08 03:25:48;;;;;;;8.00;5.35;;;;;;;;;;5079516;28;20089;-75
2023/07/08 03:28:14;;;;;;;9.73;5.30;;;;;;;;;;5091351;28;20042;-76
2023/07/08 03:30:44;;;;;;;9.20;5.40;;;;;;;;;;5093572;28;20044;-75
2023/07/08 03:33:10;;;;;;;9.27;5.35;;;;;;;;;;5093348;28;20528;-76
2023/07/08 03:35:38;;;;;;;10.00;5.25;;;;;;;;;;5092928;28;20047;-77
2023/07/08 03:38:04;;;;;;;13.18;5.03;;;;;;;;;;5093444;28;20527;-75
2023/07/08 03:40:31;;;;;;;10.60;5.60;;;;;;;;;;5093771;28;20128;-78
2023/07/08 03:42:57;;;;;;;8.23;5.25;;;;;;;;;;5093383;28;20059;-76
2023/07/08 03:45:23;;;;;;;11.30;5.30;;;;;;;;;;5074767;28;20088;-76
2023/07/08 03:47:49;;;;;;;8.85;5.72;;;;;;;;;;5094380;28;20047;-75
2023/07/08 03:50:20;;;;;;;10.57;5.47;;;;;;;;;;5091711;28;20120;-76
2023/07/08 03:52:47;;;;;;;8.55;5.10;;;;;;;;;;5078992;28;20489;-76
2023/07/08 03:55:13;;;;;;;9.65;5.60;;;;;;;;;;5092684;28;20082;-76
2023/07/08 03:57:40;;;;;;;9.10;5.25;;;;;;;;;;5063500;28;20150;-75
2023/07/08 04:00:09;;;;;;;9.20;5.07;;;;;;;;;;5060665;28;20047;-75
2023/07/08 04:02:36;;;;;;;9.30;5.35;;;;;;;;;;5089609;28;20507;-76
2023/07/08 04:05:03;;;;;;;8.93;4.97;;;;;;;;;;5091080;28;20048;-76
2023/07/08 04:07:29;;;;;;;10.85;5.57;;;;;;;;;;5091364;28;20032;-76
2023/07/08 04:09:55;;;;;;;7.88;5.20;;;;;;;;;;5092347;28;20509;-76
2023/07/08 04:12:21;;;;;;;8.23;4.72;;;;;;;;;;5066669;28;20036;-76
2023/07/08 04:14:47;;;;;;;9.15;4.90;;;;;;;;;;5103138;28;20032;-76
2023/07/08 04:17:13;;;;;;;6.90;4.88;;;;;;;;;;5092060;28;20089;-76
2023/07/08 04:19:42;;;;;;;8.63;4.85;;;;;;;;;;5092278;28;20389;-76
2023/07/08 04:22:08;;;;;;;9.63;4.65;;;;;;;;;;5091170;28;20439;-76
2023/07/08 04:24:34;;;;;;;7.55;4.20;;;;;;;;;;5084169;28;20032;-75
2023/07/08 04:27:01;;;;;;;6.40;4.43;;;;;;;;;;5088101;28;20424;-76
2023/07/08 04:29:27;;;;;;;6.95;4.43;;;;;;;;;;5075054;28;20044;-75
2023/07/08 04:31:53;;;;;;;6.13;4.38;;;;;;;;;;5091738;28;20515;-76
2023/07/08 04:34:20;;;;;;;8.23;4.35;;;;;;;;;;5091927;28;20114;-75
2023/07/08 04:36:46;;;;;;;7.75;4.82;;;;;;;;;;5092133;28;20534;-75
2023/07/08 04:39:13;;;;;;;7.65;4.43;;;;;;;;;;5091923;28;20043;-76
2023/07/08 04:41:40;;;;;;;8.57;4.65;;;;;;;;;;5091693;28;20110;-77
2023/07/08 04:44:13;;;;;;;6.70;4.57;;;;;;;;;;5082704;28;20051;-75
2023/07/08 04:46:39;;;;;;;7.00;4.45;;;;;;;;;;5091566;28;20441;-76
2023/07/08 04:49:06;;;;;;;9.57;4.30;;;;;;;;;;5091779;28;20105;-77
2023/07/08 04:51:33;;;;;;;7.57;4.00;;;;;;;;;;5091544;28;20067;-76
2023/07/08 04:53:59;;;;;;;6.05;4.10;;;;;;;;;;5091186;28;20047;-76
2023/07/08 04:56:37;;;;;;;8.93;4.45;;;;;;;;;;5090371;28;20052;-76
2023/07/08 04:59:03;;;;;;;6.88;4.30;;;;;;;;;;5091684;28;20070;-76
2023/07/08 05:01:29;;;;;;;7.38;4.28;;;;;;;;;;5083193;28;20075;-75
2023/07/08 05:03:55;;;;;;;8.40;4.55;;;;;;;;;;5091961;28;20435;-76
2023/07/08 05:06:21;;;;;;;7.20;4.40;;;;;;;;;;5090365;28;20077;-76
2023/07/08 05:08:48;;;;;;;6.78;4.13;;;;;;;;;;5090851;28;20066;-76
2023/07/08 05:11:14;;;;;;;7.15;4.57;;;;;;;;;;5074605;28;20046;-77
2023/07/08 05:13:40;;;;;;;9.77;4.20;;;;;;;;;;5091381;28;20524;-76
2023/07/08 05:16:06;;;;;;;5.57;4.25;;;;;;;;;;5074008;28;20485;-78
2023/07/08 05:18:32;;;;;;;6.15;4.03;;;;;;;;;;5090957;28;20040;-76
2023/07/08 05:20:58;;;;;;;10.00;4.18;;;;;;;;;;5091070;28;20040;-75
2023/07/08 05:23:24;;;;;;;6.30;4.00;;;;;;;;;;5091404;28;20099;-76
2023/07/08 05:25:50;;;;;;;4.97;3.85;;;;;;;;;;5090059;28;20075;-76
2023/07/08 05:28:16;;;;;;;5.00;3.47;;;;;;;;;;5092711;28;20396;-77
2023/07/08 05:30:43;;;;;;;6.45;4.28;;;;;;;;;;5090451;28;20040;-76
2023/07/08 05:33:09;;;;;;;6.32;4.53;;;;;;;;;;5091149;28;20123;-77
2023/07/08 05:35:35;;;;;;;6.80;3.90;;;;;;;;;;5090307;28;20040;-77
2023/07/08 05:38:02;;;;;;;6.90;3.63;;;;;;;;;;5090265;28;20126;-76
2023/07/08 05:40:28;;;;;;;4.80;3.45;;;;;;;;;;5090476;28;20047;-76
2023/07/08 05:42:54;;;;;;;8.73;4.00;;;;;;;;;;5073938;28;20039;-76
2023/07/08 05:45:20;;;;;;;7.63;3.80;;;;;;;;;;5091011;28;20182;-77
2023/07/08 05:47:46;;;;;;;6.50;3.88;;;;;;;;;;5088865;28;20040;-76
2023/07/08 05:50:12;;;;;;;6.78;3.67;;;;;;;;;;5057392;28;20128;-76
2023/07/08 05:52:38;;;;;;;6.53;3.70;;;;;;;;;;5095399;28;20040;-75
2023/07/08 05:55:05;;;;;;;7.55;3.83;;;;;;;;;;5091136;28;20511;-77
2023/07/08 05:57:31;;;;;;;8.48;3.55;;;;;;;;;;5073539;28;20036;-76
2023/07/08 05:59:57;;;;;;;7.85;3.75;;;;;;;;;;5073691;28;20047;-77
2023/07/08 06:02:25;;;;;;;5.57;3.38;;;;;;;;;;5090316;28;20036;-76
2023/07/08 06:04:51;;;;;;;8.20;3.60;;;;;;;;;;5091485;28;20485;-76
2023/07/08 06:07:18;;;;;;;8.00;3.58;;;;;;;;;;5092138;28;20048;-76
2023/07/08 06:09:44;;;;;;;6.35;3.33;;;;;;;;;;5092707;28;20040;-76
2023/07/08 06:12:11;;;;;;;5.80;3.40;;;;;;;;;;5094297;28;20127;-76
2023/07/08 06:14:38;;;;;;;4.72;3.30;;;;;;;;;;5094465;28;20051;-76
2023/07/08 06:17:04;;;;;;;7.43;3.08;;;;;;;;;;5095224;28;20048;-78
2023/07/08 06:19:30;;;;;;;4.63;3.30;;;;;;;;;;5092943;28;20075;-76
2023/07/08 06:21:57;;;;;;;6.82;3.75;;;;;;;;;;5076898;28;21304;-77
2023/07/08 06:24:24;;;;;;;6.70;3.55;;;;;;;;;;5077823;28;20035;-76
2023/07/08 06:26:50;;;;;;;7.32;3.50;;;;;;;;;;5093907;28;20040;-77
2023/07/08 06:29:16;;;;;;;4.97;3.10;;;;;;;;;;5092715;28;20051;-77
2023/07/08 06:31:42;;;;;;;9.23;3.35;;;;;;;;;;5094029;28;20047;-77
2023/07/08 06:34:08;;;;;;;8.20;3.40;;;;;;;;;;5095616;28;20032;-78
2023/07/08 06:36:35;;;;;;;7.95;3.00;;;;;;;;;;5094010;28;20059;-76
2023/07/08 06:39:01;;;;;;;5.25;3.35;;;;;;;;;;5094401;28;20133;-79
2023/07/08 06:41:27;;;;;;;4.07;3.00;;;;;;;;;;5076453;28;20036;-76
2023/07/08 06:43:53;;;;;;;5.97;3.17;;;;;;;;;;5092100;28;20036;-77
2023/07/08 06:46:20;;;;;;;4.00;2.90;;;;;;;;;;5093641;28;20464;-78
2023/07/08 06:48:46;;;;;;;4.55;3.13;;;;;;;;;;5053495;28;20040;-76
2023/07/08 06:51:12;;;;;;;6.05;2.92;;;;;;;;;;5093942;28;20122;-77
2023/07/08 06:53:38;;;;;;;5.53;3.28;;;;;;;;;;5076401;28;20036;-77
2023/07/08 06:56:04;;;;;;;5.03;2.90;;;;;;;;;;5094789;28;20040;-76
2023/07/08 06:58:30;;;;;;;5.25;3.30;;;;;;;;;;5093661;28;20040;-77
2023/07/08 07:00:56;;;;;;;3.90;3.05;;;;;;;;;;5093441;28;20076;-79
2023/07/08 07:03:22;;;;;;;8.25;3.20;;;;;;;;;;5076912;28;20061;-77
2023/07/08 07:05:49;;;;;;;6.88;3.47;;;;;;;;;;5094529;28;20092;-77
2023/07/08 07:08:15;;;;;;;5.35;3.00;;;;;;;;;;5093911;28;20082;-76
2023/07/08 07:10:41;;;;;;;5.53;2.67;;;;;;;;;;5093515;28;20532;-77
2023/07/08 07:13:07;;;;;;;5.93;2.88;;;;;;;;;;5069897;28;20543;-78
2023/07/08 07:15:33;;;;;;;5.72;2.72;;;;;;;;;;5093370;28;20123;-79
2023/07/08 07:17:59;;;;;;;7.97;3.28;;;;;;;;;;5092823;28;20043;-78
2023/07/08 07:20:25;;;;;;;5.60;2.90;;;;;;;;;;5092161;28;20072;-77
2023/07/08 07:22:52;;;;;;;5.22;3.30;;;;;;;;;;5093789;28;20071;-77
2023/07/08 07:25:18;;;;;;;5.53;2.70;;;;;;;;;;5093651;28;20043;-77
2023/07/08 07:27:44;;;;;;;4.05;3.00;;;;;;;;;;5093458;28;20079;-76
2023/07/08 07:30:14;;;;;;;7.15;2.88;;;;;;;;;;5092760;28;20044;-77
2023/07/08 07:32:41;;;;;;;6.20;2.95;;;;;;;;;;5093337;28;20044;-79
2023/07/08 07:35:07;;;;;;;5.93;2.70;;;;;;;;;;5092532;28;20047;-76
2023/07/08 07:37:33;;;;;;;5.05;2.78;;;;;;;;;;5092405;28;20044;-76
2023/07/08 07:39:59;;;;;;;4.57;2.80;;;;;;;;;;5092481;28;20044;-77
2023/07/08 07:42:27;;;;;;;6.35;3.10;;;;;;;;;;5091964;28;20047;-78
2023/07/08 07:44:53;;;;;;;4.95;2.72;;;;;;;;;;5091945;28;20079;-74
2023/07/08 07:47:19;;;;;;;4.10;2.78;;;;;;;;;;5092943;28;20047;-75
2023/07/08 07:49:45;;;;;;;5.88;3.15;;;;;;;;;;5094049;28;20028;-76
2023/07/08 07:52:12;;;;;;;5.78;2.80;;;;;;;;;;5092257;28;20040;-78
2023/07/08 07:54:38;;;;;;;4.95;2.63;;;;;;;;;;5106974;28;20043;-76
2023/07/08 07:57:05;;;;;;;6.43;3.50;;;;;;;;;;5075397;28;20044;-74
2023/07/08 07:59:31;;;;;;;6.05;2.92;;;;;;;;;;5087711;28;20397;-77
2023/07/08 08:01:57;;;;;;;5.50;2.85;;;;;;;;;;5091773;28;20044;-76
2023/07/08 08:04:24;;;;;;;7.05;2.92;;;;;;;;;;5083958;28;20039;-77
2023/07/08 08:06:50;;;;;;;5.47;2.70;;;;;;;;;;5091283;28;20052;-77
2023/07/08 08:09:16;;;;;;;5.63;2.80;;;;;;;;;;5092226;28;20573;-78
2023/07/08 08:11:42;;;;;;;5.00;3.20;;;;;;;;;;5075349;28;20039;-76
2023/07/08 08:14:08;;;;;;;5.95;2.88;;;;;;;;;;5091450;28;20044;-76
2023/07/08 08:16:34;;;;;;;6.72;3.10;;;;;;;;;;5089708;28;20423;-76
2023/07/08 08:19:00;;;;;;;6.07;2.80;;;;;;;;;;5095430;28;20048;-76
2023/07/08 08:21:26;;;;;;;5.63;2.85;;;;;;;;;;5063845;28;20094;-75
2023/07/08 08:23:52;;;;;;;4.32;2.83;;;;;;;;;;5090677;28;20043;-75
2023/07/08 08:26:18;;;;;;;6.05;2.92;;;;;;;;;;5092389;28;20546;-76
2023/07/08 08:28:44;;;;;;;6.07;3.20;;;;;;;;;;5090393;28;20039;-76
2023/07/08 08:31:10;;;;;;;6.47;2.75;;;;;;;;;;5074874;28;20055;-75
2023/07/08 08:33:37;;;;;;;6.45;2.97;;;;;;;;;;5092144;28;20560;-75
2023/07/08 08:36:03;;;;;;;4.57;3.00;;;;;;;;;;5074783;28;20046;-78
2023/07/08 08:38:29;;;;;;;6.82;2.97;;;;;;;;;;5091832;28;20039;-76
2023/07/08 08:40:55;;;;;;;7.75;2.97;;;;;;;;;;5092820;28;20120;-76
2023/07/08 08:43:32;;;;;;;5.72;3.20;;;;;;;;;;5074365;28;20389;-76
2023/07/08 08:46:01;;;;;;;7.13;3.10;;;;;;;;;;5092856;28;20032;-76
2023/07/08 08:48:28;;;;;;;6.35;3.22;;;;;;;;;;5092943;28;20149;-75
2023/07/08 08:51:00;;;;;;;5.93;3.10;;;;;;;;;;5092010;28;20048;-75
2023/07/08 08:53:27;;;;;;;4.88;3.22;;;;;;;;;;5091189;28;20050;-74
2023/07/08 08:56:11;;;;;;;6.00;2.75;;;;;;;;;;5092885;28;20040;-75
2023/07/08 08:58:59;;;;;;;7.88;3.25;;;;;;;;;;5079624;28;20039;-74
2023/07/08 09:01:25;;;;;;;5.60;2.95;;;;;;;;;;5093130;28;20044;-75
2023/07/08 09:03:53;;;;;;;6.28;3.28;;;;;;;;;;5091906;28;20385;-74
2023/07/08 09:06:26;;;;;;;4.45;3.28;;;;;;;;;;5090321;28;20048;-74
2023/07/08 09:08:53;;;;;;;7.82;3.13;;;;;;;;;;5082873;28;20044;-77
2023/07/08 09:11:40;;;;;;;9.13;3.92;;;;;;;;;;5090627;28;20051;-75
2023/07/08 09:14:13;;;;;;;6.57;3.40;;;;;;;;;;5088051;28;20048;-74
2023/07/08 09:17:06;;;;;;;6.65;3.40;;;;;;;;;;5089615;28;20040;-75
2023/07/08 09:19:52;;;;;;;5.25;3.40;;;;;;;;;;5087404;28;20068;-75
2023/07/08 09:22:57;;;;;;;6.40;3.50;;;;;;;;;;5090782;28;20382;-75
2023/07/08 09:25:29;;;;;;;5.80;3.30;;;;;;;;;;5009935;28;20103;-74
2023/07/08 09:27:56;;;;;;;7.82;3.50;;;;;;;;;;5010627;28;20042;-75
2023/07/08 09:30:24;;;;;;;6.28;3.55;;;;;;;;;;5041338;28;20539;-75
2023/07/08 09:32:50;;;;;;;8.02;3.47;;;;;;;;;;5091259;28;20044;-74
2023/07/08 09:35:28;;;;;;;6.15;3.60;;;;;;;;;;5090792;28;20485;-76
2023/07/08 09:37:54;;;;;;;7.00;3.67;;;;;;;;;;5092605;28;20046;-76
2023/07/08 09:40:24;;;;;;;4.88;3.65;;;;;;;;;;5090288;28;20044;-76
2023/07/08 09:42:51;;;;;;;7.05;3.50;;;;;;;;;;5089610;28;20039;-76
2023/07/08 09:45:25;;;;;;;9.68;3.70;;;;;;;;;;5090609;28;20040;-75
2023/07/08 09:47:55;;;;;;;4.43;3.33;;;;;;;;;;5091191;28;20044;-74
2023/07/08 09:50:23;;;;;;;5.65;3.40;;;;;;;;;;5090619;28;20070;-75
2023/07/08 09:52:50;;;;;;;4.28;3.45;;;;;;;;;;5092138;28;20033;-74
2023/07/08 09:55:17;;;;;;;8.65;3.63;;;;;;;;;;5089965;28;20036;-76
2023/07/08 09:57:44;;;;;;;4.72;3.40;;;;;;;;;;5090976;28;20400;-75
2023/07/08 10:00:15;;;;;;;6.05;3.55;;;;;;;;;;5090389;28;20077;-75
2023/07/08 10:02:44;;;;;;;4.43;3.20;;;;;;;;;;5089870;28;20056;-75
2023/07/08 10:05:24;;;;;;;6.45;3.40;;;;;;;;;;5090195;28;20051;-74
2023/07/08 10:07:53;;;;;;;5.20;3.28;;;;;;;;;;5090859;28;20070;-76
2023/07/08 10:10:23;;;;;;;5.88;3.42;;;;;;;;;;5090533;28;20068;-75
2023/07/08 10:13:09;;;;;;;7.75;3.35;;;;;;;;;;5089756;28;20035;-75
2023/07/08 10:15:54;;;;;;;5.82;3.33;;;;;;;;;;5082215;28;20064;-76
2023/07/08 10:18:24;;;;;;;6.07;3.35;;;;;;;;;;5090275;28;20561;-75
2023/07/08 10:20:53;;;;;;;6.03;3.33;;;;;;;;;;5091908;28;20044;-74
2023/07/08 10:23:40;;;;;;;6.43;3.60;;;;;;;;;;5089998;28;20036;-74
2023/07/08 10:26:32;;;;;;;6.35;3.50;;;;;;;;;;5089034;28;20089;-76
2023/07/08 10:29:04;;;;;;;5.38;3.38;;;;;;;;;;5076658;28;20048;-74
2023/07/08 10:31:33;;;;;;;7.00;3.70;;;;;;;;;;5090410;28;20464;-76
2023/07/08 10:34:02;;;;;;;6.55;3.50;;;;;;;;;;5090616;28;20044;-75
2023/07/08 10:36:34;;;;;;;6.00;3.78;;;;;;;;;;5090237;28;20437;-75
2023/07/08 10:39:19;;;;;;;7.80;3.92;;;;;;;;;;5072663;28;20066;-76
2023/07/08 10:41:58;;;;;;;5.47;3.53;;;;;;;;;;5077941;28;20130;-77
2023/07/08 10:44:32;;;;;;;5.20;3.40;;;;;;;;;;5089765;28;20089;-77
2023/07/08 10:46:58;;;;;;;6.57;3.42;;;;;;;;;;5090791;28;20510;-75
2023/07/08 10:49:53;;;;;;;7.25;3.58;;;;;;;;;;5090325;28;20504;-75
2023/07/08 10:52:41;;;;;;;4.97;3.55;;;;;;;;;;5000094;28;20046;-75
2023/07/08 10:55:19;;;;;;;5.95;3.40;;;;;;;;;;5075691;28;20400;-76
2023/07/08 10:58:00;;;;;;;6.75;3.63;;;;;;;;;;5093908;28;20048;-76
2023/07/08 11:00:46;;;;;;;5.27;3.30;;;;;;;;;;5093600;28;20043;-75
2023/07/08 11:03:31;;;;;;;5.57;3.50;;;;;;;;;;5092512;28;20043;-75
2023/07/08 11:06:01;;;;;;;4.20;3.22;;;;;;;;;;5091118;28;20052;-76
2023/07/08 11:08:30;;;;;;;6.40;3.50;;;;;;;;;;5093672;28;20031;-75
2023/07/08 11:11:05;;;;;;;4.82;3.45;;;;;;;;;;5076888;28;20052;-74
2023/07/08 11:13:32;;;;;;;6.10;3.45;;;;;;;;;;5078314;28;20062;-76
2023/07/08 11:16:03;;;;;;;7.07;3.42;;;;;;;;;;5076702;28;20409;-75
2023/07/08 11:18:37;;;;;;;6.32;3.35;;;;;;;;;;5093345;28;20044;-76
2023/07/08 11:21:09;;;;;;;9.43;3.30;;;;;;;;;;5076685;28;20040;-75
2023/07/08 11:23:44;;;;;;;6.32;3.40;;;;;;;;;;5093073;28;20278;-76
2023/07/08 11:26:10;;;;;;;;;;;;;;;;;;5094334;28;20404;-75
2023/07/08 11:28:36;;;;;;;4.90;3.13;;;;;;;;;;5094594;28;19922;-77
2023/07/08 11:31:03;;;;;;;5.80;3.65;;;;;;;;;;5093570;28;20048;-75
2023/07/08 11:33:31;;;;;;;6.45;3.58;;;;;;;;;;5092991;28;20040;-75
2023/07/08 11:35:58;;;;;;;5.97;3.40;;;;;;;;;;5094780;28;20122;-75
2023/07/08 11:38:25;;;;;;;5.43;3.25;;;;;;;;;;5090952;28;20174;-76
2023/07/08 11:40:54;;;;;;;5.85;3.25;;;;;;;;;;5093446;28;20475;-76
2023/07/08 11:43:22;;;;;;;6.95;3.70;;;;;;;;;;5092894;28;20544;-75
2023/07/08 11:45:50;;;;;;;5.72;3.47;;;;;;;;;;5093239;28;20040;-76
2023/07/08 11:48:19;;;;;;;5.47;3.55;;;;;;;;;;5093015;28;20036;-75
2023/07/08 11:50:49;;;;;;;5.43;3.78;;;;;;;;;;5093632;28;20040;-76
2023/07/08 11:53:31;;;;;;;4.70;3.33;;;;;;;;;;5092831;28;20043;-75
2023/07/08 11:55:58;;;;;;;5.38;3.78;;;;;;;;;;5094262;28;20047;-75
2023/07/08 11:58:26;;;;;;;5.78;3.65;;;;;;;;;;5093636;28;20097;-75
2023/07/08 12:00:58;;;;;;;7.97;3.90;;;;;;;;;;5092835;28;20090;-75
2023/07/08 12:03:32;;;;;;;6.03;3.88;;;;;;;;;;5092027;28;20040;-76
2023/07/08 12:06:05;;;;;;;5.80;3.67;;;;;;;;;;5105141;28;20521;-75
2023/07/08 12:08:37;;;;;;;5.07;3.95;;;;;;;;;;5090147;28;20032;-76
2023/07/08 12:11:03;;;;;;;5.30;4.05;;;;;;;;;;5092479;28;20035;-76
2023/07/08 12:13:30;;;;;;;6.13;4.00;;;;;;;;;;5092389;28;20408;-75
2023/07/08 12:15:56;;;;;;;5.03;4.00;;;;;;;;;;5093040;28;20090;-76
2023/07/08 12:18:25;;;;;;;6.90;4.25;;;;;;;;;;5092328;28;20499;-75
2023/07/08 12:20:56;;;;;;;5.93;4.00;;;;;;;;;;5092539;28;20040;-76
2023/07/08 12:23:23;;;;;;;6.43;4.50;;;;;;;;;;5092462;28;20043;-76
2023/07/08 12:25:49;;;;;;;6.22;4.10;;;;;;;;;;5078408;28;20040;-75
2023/07/08 12:28:16;;;;;;;6.90;4.30;;;;;;;;;;5092380;28;20399;-80
2023/07/08 12:30:43;;;;;;;10.07;4.50;;;;;;;;;;5089832;28;20036;-79
2023/07/08 12:33:13;;;;;;;7.57;4.68;;;;;;;;;;5092332;28;20044;-77
2023/07/08 12:35:40;;;;;;;6.28;4.63;;;;;;;;;;5090054;28;20039;-77
2023/07/08 12:38:19;;;;;;;7.72;4.50;;;;;;;;;;5092088;28;20504;-77
2023/07/08 12:40:45;;;;;;;7.28;4.30;;;;;;;;;;5072930;28;20050;-77
2023/07/08 12:43:11;;;;;;;5.50;4.22;;;;;;;;;;5091449;28;20480;-78
2023/07/08 12:45:38;;;;;;;7.70;4.43;;;;;;;;;;5067109;28;20039;-78
2023/07/08 12:48:04;;;;;;;7.82;4.25;;;;;;;;;;5089232;28;20097;-77
2023/07/08 12:50:30;;;;;;;6.72;4.55;;;;;;;;;;5091067;28;20564;-77
2023/07/08 12:52:56;;;;;;;7.18;4.60;;;;;;;;;;5091890;28;20036;-78
2023/07/08 12:55:23;;;;;;;6.18;4.35;;;;;;;;;;5089696;28;20074;-77
2023/07/08 12:57:51;;;;;;;7.55;4.10;;;;;;;;;;5064708;28;20401;-78
2023/07/08 13:00:28;;;;;;;8.10;3.88;;;;;;;;;;5081556;28;20049;-75
2023/07/08 13:03:14;;;;;;;6.10;4.07;;;;;;;;;;5092935;28;20472;-75
2023/07/08 13:05:41;;;;;;;8.20;4.18;;;;;;;;;;5088803;28;20135;-75
2023/07/08 13:08:09;;;;;;;6.75;4.40;;;;;;;;;;5090563;28;20048;-75
2023/07/08 13:10:35;;;;;;;5.70;4.35;;;;;;;;;;5089559;28;20050;-80
2023/07/08 13:13:03;;;;;;;5.85;4.30;;;;;;;;;;5090396;28;20055;-76
2023/07/08 13:15:39;;;;;;;7.07;4.40;;;;;;;;;;5088257;28;20036;-76
2023/07/08 13:18:06;;;;;;;8.07;4.40;;;;;;;;;;5081522;28;20036;-78
2023/07/08 13:20:32;;;;;;;7.20;4.15;;;;;;;;;;5090450;28;20032;-76
2023/07/08 13:23:01;;;;;;;7.13;4.57;;;;;;;;;;5058135;28;20449;-76
2023/07/08 13:25:29;;;;;;;9.45;4.57;;;;;;;;;;5074146;28;20039;-75
2023/07/08 13:28:13;;;;;;;8.02;4.18;;;;;;;;;;5087606;28;20040;-78
2023/07/08 13:30:40;;;;;;;7.60;4.53;;;;;;;;;;5088782;28;20046;-75
2023/07/08 13:33:15;;;;;;;7.20;4.65;;;;;;;;;;5073331;28;20392;-76
2023/07/08 13:35:43;;;;;;;9.52;4.57;;;;;;;;;;5089675;28;20036;-78
2023/07/08 13:38:20;;;;;;;8.52;4.80;;;;;;;;;;5089557;28;20032;-75
2023/07/08 13:40:48;;;;;;;7.68;4.60;;;;;;;;;;5090348;28;20044;-77
2023/07/08 13:43:14;;;;;;;6.95;4.45;;;;;;;;;;5070229;28;20108;-76
2023/07/08 13:45:47;;;;;;;7.03;4.70;;;;;;;;;;5090617;28;20058;-76
2023/07/08 13:48:13;;;;;;;8.38;4.90;;;;;;;;;;5091563;28;20072;-76
2023/07/08 13:50:48;;;;;;;8.05;4.70;;;;;;;;;;5090220;28;20036;-76
2023/07/08 13:53:26;;;;;;;8.88;5.35;;;;;;;;;;5091883;28;20067;-77
2023/07/08 13:55:59;;;;;;;11.45;4.97;;;;;;;;;;5089754;28;20044;-76
2023/07/08 13:58:28;;;;;;;7.20;4.70;;;;;;;;;;5067984;28;20040;-76
2023/07/08 14:00:55;;;;;;;7.85;4.30;;;;;;;;;;5089904;28;20097;-77
2023/07/08 14:03:21;;;;;;;6.53;4.40;;;;;;;;;;5067934;28;20503;-77
2023/07/08 14:05:47;;;;;;;10.52;4.80;;;;;;;;;;5091173;28;20109;-77
2023/07/08 14:08:15;;;;;;;9.50;5.13;;;;;;;;;;5089825;28;20059;-77
2023/07/08 14:10:41;;;;;;;7.75;4.80;;;;;;;;;;5090244;28;20044;-78
2023/07/08 14:13:07;;;;;;;6.90;4.68;;;;;;;;;;5089813;28;20199;-77
2023/07/08 14:15:33;;;;;;;7.68;4.85;;;;;;;;;;5090303;28;20047;-77
2023/07/08 14:18:02;;;;;;;12.30;5.55;;;;;;;;;;5089823;28;20040;-76
2023/07/08 14:20:29;;;;;;;7.97;4.85;;;;;;;;;;5090636;28;20457;-78
2023/07/08 14:22:56;;;;;;;6.93;4.93;;;;;;;;;;5088672;28;20509;-77
2023/07/08 14:25:23;;;;;;;7.45;5.10;;;;;;;;;;5090566;28;20032;-78
2023/07/08 14:27:50;;;;;;;6.35;5.00;;;;;;;;;;5090091;28;20047;-78
2023/07/08 14:30:17;;;;;;;9.27;4.57;;;;;;;;;;5093618;28;20036;-78
2023/07/08 14:32:43;;;;;;;7.15;4.90;;;;;;;;;;5071291;28;20067;-77
2023/07/08 14:35:12;;;;;;;19.20;5.18;;;;;;;;;;5084338;28;20434;-76
2023/07/08 14:37:38;;;;;;;18.23;5.03;;;;;;;;;;5092836;28;20032;-77
2023/07/08 14:40:14;;;;;;;8.15;4.88;;;;;;;;;;5093874;28;20048;-77
2023/07/08 14:42:40;;;;;;;7.97;4.93;;;;;;;;;;5093273;28;20051;-77
2023/07/08 14:45:08;;;;;;;6.93;4.75;;;;;;;;;;5093648;28;20039;-78
2023/07/08 14:47:34;;;;;;;8.88;4.85;;;;;;;;;;5094832;28;20075;-77
2023/07/08 14:50:00;;;;;;;7.60;4.70;;;;;;;;;;5093812;28;20466;-77
2023/07/08 14:52:26;;;;;;;8.77;5.00;;;;;;;;;;5093845;28;20051;-77